createdAt,value
2023-03-29T00:02:33.809Z,19.90
2023-03-29T00:12:41.337Z,18.40
2023-03-29T00:22:48.619Z,16.00
2023-03-29T00:43:02.453Z,23.60
2023-03-29T00:53:14.176Z,19.20
2023-03-29T01:03:27.516Z,19.10
2023-03-29T01:13:34.830Z,18.70
2023-03-29T01:24:09.365Z,23.40
2023-03-29T01:34:18.402Z,26.50
2023-03-29T01:44:30.459Z,35.70
2023-03-29T01:54:42.190Z,18.70
2023-03-29T02:04:54.698Z,13.70
2023-03-29T02:15:01.943Z,12.50
2023-03-29T02:25:08.728Z,13.80
2023-03-29T02:35:19.164Z,14.70
2023-03-29T02:45:28.014Z,11.60
2023-03-29T02:55:37.002Z,16.00
2023-03-29T03:05:43.854Z,17.70
2023-03-29T03:15:55.041Z,15.90
2023-03-29T03:26:02.299Z,20.30
2023-03-29T03:36:11.081Z,26.80
2023-03-29T03:46:19.301Z,27.90
2023-03-29T03:56:30.075Z,31.60
2023-03-29T04:06:37.505Z,27.20
2023-03-29T04:16:43.257Z,42.60
2023-03-29T04:26:50.336Z,34.00
2023-03-29T04:36:58.942Z,34.70
2023-03-29T04:47:06.104Z,32.20
2023-03-29T04:57:13.414Z,52.90
2023-03-29T05:07:20.804Z,43.20
2023-03-29T05:17:28.152Z,67.10
2023-03-29T05:27:36.070Z,63.50
2023-03-29T05:37:43.124Z,73.40
2023-03-29T05:47:50.304Z,76.00
2023-03-29T05:57:57.713Z,57.40
2023-03-29T06:08:05.753Z,59.30
2023-03-29T06:18:12.955Z,65.90
2023-03-29T06:28:21.012Z,72.60
2023-03-29T06:38:27.103Z,42.70
2023-03-29T06:48:34.102Z,33.00
2023-03-29T06:58:41.264Z,38.80
2023-03-29T07:08:51.090Z,31.20
2023-03-29T07:18:58.844Z,27.70
2023-03-29T07:29:06.531Z,15.90
2023-03-29T07:49:22.279Z,12.90
2023-03-29T07:59:29.797Z,9.70
2023-03-29T08:09:37.703Z,10.10
2023-03-29T08:19:51.054Z,11.20
2023-03-29T08:40:08.063Z,9.10
2023-03-29T08:50:16.231Z,8.10
2023-03-29T09:00:27.212Z,5.10
2023-03-29T09:10:39.706Z,10.80
2023-03-29T09:20:45.312Z,7.70
2023-03-29T09:30:51.479Z,5.20
2023-03-29T09:41:01.928Z,7.10
2023-03-29T09:51:11.748Z,3.30
2023-03-29T10:01:19.524Z,7.00
2023-03-29T10:11:33.149Z,3.60
2023-03-29T10:21:41.231Z,5.90
2023-03-29T10:31:48.282Z,7.30
2023-03-29T10:41:53.937Z,4.20
2023-03-29T10:52:02.309Z,8.40
2023-03-29T11:02:25.893Z,5.60
2023-03-29T11:12:31.446Z,8.80
2023-03-29T11:22:38.936Z,7.20
2023-03-29T11:32:47.979Z,5.20
2023-03-29T11:42:58.866Z,4.40
2023-03-29T11:53:07.371Z,6.00
2023-03-29T12:03:22.720Z,4.80
2023-03-29T12:13:32.573Z,2.70
2023-03-29T12:23:42.521Z,3.80
2023-03-29T12:34:16.495Z,3.50
2023-03-29T12:44:24.879Z,3.20
2023-03-29T12:54:32.699Z,4.10
2023-03-29T13:04:37.694Z,3.40
2023-03-29T13:25:01.517Z,7.50
2023-03-29T13:35:16.004Z,4.00
2023-03-29T13:55:33.636Z,2.90
2023-03-29T14:05:49.312Z,11.00
2023-03-29T14:15:57.414Z,19.10
2023-03-29T14:26:08.017Z,10.40
2023-03-29T14:36:19.069Z,6.90
2023-03-29T14:46:27.580Z,12.50
2023-03-29T14:56:35.956Z,6.90
2023-03-29T15:06:43.962Z,5.90
2023-03-29T15:16:51.589Z,5.30
2023-03-29T15:27:05.633Z,9.90
2023-03-29T15:37:11.989Z,6.30
2023-03-29T15:47:19.209Z,10.80
2023-03-29T15:57:26.936Z,21.00
2023-03-29T16:07:34.343Z,14.00
2023-03-29T16:17:42.029Z,10.00
2023-03-29T16:27:49.786Z,14.10
2023-03-29T16:37:57.538Z,20.30
2023-03-29T16:48:05.245Z,22.50
2023-03-29T16:58:13.530Z,18.60
2023-03-29T17:08:22.001Z,32.20
2023-03-29T17:18:29.732Z,36.10
2023-03-29T17:28:37.160Z,42.80
2023-03-29T17:38:44.329Z,47.10
2023-03-29T17:48:52.229Z,50.10
2023-03-29T17:58:59.555Z,60.00
2023-03-29T18:09:08.042Z,59.00
2023-03-29T18:19:14.261Z,51.30
2023-03-29T18:29:21.952Z,60.20
2023-03-29T18:39:28.577Z,53.50
2023-03-29T18:49:36.977Z,53.40
2023-03-29T18:59:44.185Z,92.50
2023-03-29T19:09:51.262Z,70.70
2023-03-29T19:19:58.676Z,61.90
2023-03-29T19:30:06.959Z,59.10
2023-03-29T19:40:13.955Z,54.10
2023-03-29T19:50:19.386Z,54.00
2023-03-29T20:00:24.750Z,69.40
2023-03-29T20:10:32.127Z,57.30
2023-03-29T20:20:39.292Z,48.00
2023-03-29T20:30:51.298Z,41.40
2023-03-29T20:40:59.221Z,45.00
2023-03-29T20:51:04.618Z,45.50
2023-03-29T21:01:12.637Z,34.90
2023-03-29T21:11:21.158Z,32.60
2023-03-29T21:21:29.726Z,24.60
2023-03-29T21:31:37.757Z,29.80
2023-03-29T21:41:45.067Z,27.50
2023-03-29T21:51:52.654Z,25.10
2023-03-29T22:02:00.152Z,28.80
2023-03-29T22:22:16.534Z,23.80
2023-03-29T22:32:23.904Z,24.30
2023-03-29T22:42:31.798Z,19.70
2023-03-29T22:52:39.012Z,16.90
2023-03-29T23:02:46.163Z,18.10
2023-03-29T23:12:53.941Z,18.30
2023-03-29T23:23:01.548Z,18.30
2023-03-29T23:33:10.593Z,21.60
2023-03-29T23:43:18.278Z,17.00
2023-03-29T23:53:25.757Z,16.00
